Time;durP1;ratioP1;P1;durP2;ratioP2;P2;SDS_P1;SDS_P2;PMS_P1;PMS_P2;Temp;Humidity;BMP_temperature;BMP_pressure;BME280_temperature;BME280_humidity;BME280_pressure;Samples;Min_cycle;Max_cycle;Signal;HPM_P1;HPM_P2
2023/07/02 00:02:14;;;;;;;8.63;3.50;;;;;;;17.51;100.00;100458.00;5047742;28;20118;-78
2023/07/02 00:04:39;;;;;;;6.07;2.90;;;;;;;17.30;100.00;100456.41;5060682;28;20021;-78
2023/07/02 00:07:05;;;;;;;5.55;3.42;;;;;;;17.38;100.00;100452.19;5053056;28;20032;-78
2023/07/02 00:09:30;;;;;;;5.38;3.42;;;;;;;17.50;100.00;100460.03;5060214;28;20033;-78
2023/07/02 00:11:56;;;;;;;6.85;3.60;;;;;;;17.42;100.00;100445.22;5056497;28;20075;-78
2023/07/02 00:14:21;;;;;;;10.77;2.63;;;;;;;17.32;100.00;100453.94;5050658;28;20024;-78
2023/07/02 00:16:46;;;;;;;4.53;2.90;;;;;;;17.21;100.00;100452.13;5050736;28;20025;-78
2023/07/02 00:19:14;;;;;;;6.38;2.80;;;;;;;17.38;100.00;100450.16;5044791;28;20048;-78
2023/07/02 00:21:40;;;;;;;5.15;2.83;;;;;;;17.32;100.00;100451.09;5055849;28;20033;-78
2023/07/02 00:24:09;;;;;;;5.65;2.83;;;;;;;17.44;100.00;100454.09;5066455;28;20077;-78
2023/07/02 00:26:34;;;;;;;6.10;3.30;;;;;;;17.27;100.00;100455.25;5039772;28;20046;-78
2023/07/02 00:28:59;;;;;;;6.45;3.75;;;;;;;17.35;100.00;100459.53;5058633;28;20033;-78
2023/07/02 00:31:25;;;;;;;11.38;4.15;;;;;;;17.28;98.54;100454.00;5059277;28;20035;-78
2023/07/02 00:33:51;;;;;;;12.20;4.15;;;;;;;17.04;96.54;100450.44;5066219;28;20027;-78
2023/07/02 00:36:19;;;;;;;13.70;4.38;;;;;;;17.21;96.76;100459.81;5062551;28;20036;-78
2023/07/02 00:38:47;;;;;;;13.40;4.53;;;;;;;17.18;91.67;100455.00;5043562;28;20060;-78
2023/07/02 00:41:12;;;;;;;14.30;5.40;;;;;;;17.14;90.61;100459.94;5059116;28;20448;-78
2023/07/02 00:43:43;;;;;;;17.38;5.55;;;;;;;16.99;88.67;100442.44;5045251;28;20060;-78
2023/07/02 00:46:19;;;;;;;20.50;6.20;;;;;;;17.16;86.71;100458.28;5064716;28;20024;-78
2023/07/02 00:48:46;;;;;;;17.25;6.30;;;;;;;17.22;85.82;100455.75;5056811;28;20028;-78
2023/07/02 00:51:15;;;;;;;17.63;6.13;;;;;;;17.18;84.48;100453.00;5042004;28;20031;-78
2023/07/02 00:53:41;;;;;;;16.30;5.88;;;;;;;17.23;84.64;100452.47;5053815;28;20044;-78
2023/07/02 00:56:07;;;;;;;18.02;6.18;;;;;;;17.04;83.39;100453.28;5040951;28;20627;-79
2023/07/02 00:58:38;;;;;;;15.48;5.32;;;;;;;17.10;83.82;100442.22;5042010;28;20137;-78
2023/07/02 01:01:04;;;;;;;15.38;5.63;;;;;;;17.15;84.21;100444.56;5054852;28;20052;-78
2023/07/02 01:03:32;;;;;;;12.75;5.75;;;;;;;17.15;83.32;100445.38;5039297;28;20460;-78
2023/07/02 01:05:59;;;;;;;13.65;5.50;;;;;;;17.14;85.09;100440.97;5056931;28;20078;-78
2023/07/02 01:08:24;;;;;;;17.83;5.70;;;;;;;17.07;85.62;100438.25;5060440;28;20545;-78
2023/07/02 01:10:50;;;;;;;18.45;6.55;;;;;;;17.07;85.48;100441.06;5045615;28;20120;-78
2023/07/02 01:13:20;;;;;;;16.02;6.28;;;;;;;17.04;85.73;100444.78;5040601;28;20071;-78
2023/07/02 01:15:46;;;;;;;21.48;6.38;;;;;;;16.92;86.19;100442.59;5020353;28;20598;-78
2023/07/02 01:18:14;;;;;;;15.48;6.22;;;;;;;16.62;85.70;100436.63;5044526;28;20116;-78
2023/07/02 01:20:40;;;;;;;15.57;5.63;;;;;;;16.84;86.21;100453.22;5035349;28;20475;-78
2023/07/02 01:23:07;;;;;;;17.63;5.30;;;;;;;16.84;85.69;100459.69;5039244;28;20473;-78
2023/07/02 01:25:36;;;;;;;26.23;7.45;;;;;;;16.90;85.69;100462.81;5042696;28;20239;-78
2023/07/02 01:28:02;;;;;;;14.23;5.85;;;;;;;16.89;85.61;100449.09;5026532;28;20451;-78
2023/07/02 01:30:27;;;;;;;21.70;6.38;;;;;;;16.92;85.05;100456.72;5043766;28;20049;-78
2023/07/02 01:32:53;;;;;;;16.13;5.95;;;;;;;16.63;86.68;100451.53;5039903;28;20043;-78
2023/07/02 01:35:18;;;;;;;16.33;6.07;;;;;;;16.76;85.91;100451.72;5044607;28;20481;-78
2023/07/02 01:37:44;;;;;;;26.83;8.02;;;;;;;16.51;87.22;100461.44;5040935;28;20426;-78
2023/07/02 01:40:09;;;;;;;20.50;6.25;;;;;;;16.72;86.35;100468.75;5042127;28;20037;-78
2023/07/02 01:42:35;;;;;;;16.30;6.03;;;;;;;16.69;86.69;100475.25;5025806;28;20047;-78
2023/07/02 01:45:00;;;;;;;13.98;6.05;;;;;;;16.75;87.06;100469.91;5040160;28;20025;-78
2023/07/02 01:47:26;;;;;;;13.13;5.80;;;;;;;16.71;87.16;100466.34;5040201;28;20033;-78
2023/07/02 01:49:51;;;;;;;13.35;6.60;;;;;;;16.53;88.47;100466.66;5045338;28;20029;-79
2023/07/02 01:52:17;;;;;;;16.83;5.63;;;;;;;16.51;89.03;100474.75;5039938;28;20180;-78
2023/07/02 01:54:43;;;;;;;15.95;6.70;;;;;;;16.49;88.83;100477.22;5042313;28;20025;-78
2023/07/02 01:57:08;;;;;;;16.05;7.18;;;;;;;16.49;88.80;100472.38;5041150;28;20086;-78
2023/07/02 01:59:34;;;;;;;20.98;6.03;;;;;;;16.52;88.90;100465.06;5021479;28;20029;-79
2023/07/02 02:02:00;;;;;;;14.95;7.50;;;;;;;16.53;89.06;100472.28;5045429;28;20100;-78
2023/07/02 02:04:25;;;;;;;14.07;5.90;;;;;;;16.49;88.72;100472.38;5038021;28;20028;-78
2023/07/02 02:06:52;;;;;;;19.02;6.43;;;;;;;16.54;88.46;100471.09;5041176;28;20026;-78
2023/07/02 02:09:18;;;;;;;16.02;7.53;;;;;;;16.30;88.73;100473.09;5039770;28;20033;-78
2023/07/02 02:11:48;;;;;;;18.60;6.35;;;;;;;16.40;89.47;100489.06;5045020;28;20449;-78
2023/07/02 02:14:13;;;;;;;15.40;5.68;;;;;;;16.50;88.27;100478.81;5040870;28;20500;-78
2023/07/02 02:16:39;;;;;;;16.73;6.07;;;;;;;16.48;88.44;100475.63;5021880;28;20033;-78
2023/07/02 02:19:04;;;;;;;18.95;5.93;;;;;;;16.44;88.07;100468.00;5041116;28;20032;-78
2023/07/02 02:21:30;;;;;;;21.65;6.70;;;;;;;16.41;88.06;100471.69;5030855;28;20138;-78
2023/07/02 02:23:56;;;;;;;17.75;6.50;;;;;;;16.36;87.87;100471.34;5044968;28;20119;-78
2023/07/02 02:26:22;;;;;;;16.40;6.20;;;;;;;16.26;88.28;100467.50;5024921;28;20029;-78
2023/07/02 02:28:48;;;;;;;21.55;6.75;;;;;;;16.22;88.38;100480.88;5039399;28;20183;-78
2023/07/02 02:31:15;;;;;;;16.50;6.20;;;;;;;16.18;88.96;100475.25;5040628;28;20032;-78
2023/07/02 02:33:40;;;;;;;18.75;5.38;;;;;;;16.19;88.40;100473.22;5035484;28;20040;-76
2023/07/02 02:36:06;;;;;;;18.27;6.55;;;;;;;16.19;88.24;100476.06;5035621;28;20025;-76
2023/07/02 02:38:31;;;;;;;17.67;5.25;;;;;;;16.21;87.89;100473.59;5031810;28;20043;-76
2023/07/02 02:40:56;;;;;;;17.25;6.65;;;;;;;16.07;88.59;100473.84;5021090;28;20120;-76
2023/07/02 02:43:22;;;;;;;17.20;7.30;;;;;;;16.12;88.65;100476.97;5036395;28;20029;-76
2023/07/02 02:45:47;;;;;;;21.65;7.50;;;;;;;16.12;88.74;100481.81;5035570;28;20045;-76
2023/07/02 02:48:13;;;;;;;14.38;6.38;;;;;;;16.02;88.56;100475.91;5040044;28;20024;-76
2023/07/02 02:50:41;;;;;;;16.40;6.03;;;;;;;16.05;88.22;100492.00;5032315;28;20040;-76
2023/07/02 02:53:07;;;;;;;19.50;6.82;;;;;;;16.08;87.79;100492.38;5037866;28;20477;-75
2023/07/02 02:55:32;;;;;;;18.98;6.55;;;;;;;16.00;87.70;100481.19;5039929;28;20037;-76
2023/07/02 02:57:58;;;;;;;19.65;7.57;;;;;;;15.99;87.93;100487.25;5037142;28;20075;-76
2023/07/02 03:00:23;;;;;;;21.92;5.75;;;;;;;15.93;87.75;100492.56;5017244;28;20039;-75
2023/07/02 03:02:49;;;;;;;15.30;6.15;;;;;;;15.88;88.19;100493.06;5035784;28;20546;-76
2023/07/02 03:05:16;;;;;;;16.88;6.07;;;;;;;15.88;88.24;100497.91;5041919;28;20029;-75
2023/07/02 03:07:41;;;;;;;16.63;5.43;;;;;;;15.88;87.84;100487.41;5022429;28;20369;-76
2023/07/02 03:10:07;;;;;;;17.70;5.90;;;;;;;15.62;88.73;100498.19;5027303;28;20435;-76
2023/07/02 03:12:33;;;;;;;15.98;6.43;;;;;;;15.59;89.04;100503.88;5056454;28;20028;-75
2023/07/02 03:14:58;;;;;;;16.83;7.35;;;;;;;15.62;89.25;100506.66;5054038;28;20506;-75
2023/07/02 03:17:24;;;;;;;14.43;6.03;;;;;;;15.66;88.74;100500.94;5053933;28;20031;-75
2023/07/02 03:19:50;;;;;;;15.43;6.00;;;;;;;15.70;89.02;100500.91;5059503;28;20028;-75
2023/07/02 03:22:15;;;;;;;16.15;5.97;;;;;;;15.67;88.48;100499.75;5059599;28;20027;-76
2023/07/02 03:24:41;;;;;;;14.35;6.70;;;;;;;15.66;88.91;100500.94;5059731;28;20036;-75
2023/07/02 03:27:06;;;;;;;20.45;6.75;;;;;;;15.45;89.79;100508.47;5057319;28;20393;-75
2023/07/02 03:29:33;;;;;;;18.73;6.75;;;;;;;15.58;89.38;100502.25;5068551;28;20078;-76
2023/07/02 03:31:59;;;;;;;18.80;6.28;;;;;;;15.60;89.91;100506.28;5056856;28;20039;-75
2023/07/02 03:34:24;;;;;;;14.45;5.47;;;;;;;15.45;90.15;100505.66;5054223;28;20021;-76
2023/07/02 03:36:49;;;;;;;14.43;6.68;;;;;;;15.45;90.52;100513.28;5062398;28;20089;-76
2023/07/02 03:39:16;;;;;;;16.52;7.38;;;;;;;15.41;90.30;100506.88;5055023;28;20538;-75
2023/07/02 03:41:41;;;;;;;18.08;6.07;;;;;;;15.45;90.67;100518.94;5059501;28;20441;-75
2023/07/02 03:44:07;;;;;;;22.42;7.00;;;;;;;15.45;90.51;100516.09;5055027;28;20028;-75
2023/07/02 03:46:32;;;;;;;15.30;5.93;;;;;;;15.24;92.37;100515.16;5053286;28;20407;-76
2023/07/02 03:48:58;;;;;;;22.05;7.82;;;;;;;15.43;91.13;100510.09;5059653;28;20762;-76
2023/07/02 03:51:23;;;;;;;20.52;6.30;;;;;;;15.48;90.89;100506.81;5055569;28;20054;-75
2023/07/02 03:53:48;;;;;;;17.17;6.93;;;;;;;15.42;91.35;100512.13;5060260;28;20035;-75
2023/07/02 03:56:14;;;;;;;20.02;5.95;;;;;;;15.37;91.66;100525.91;5054410;28;20749;-75
2023/07/02 03:58:40;;;;;;;20.38;6.45;;;;;;;15.26;92.41;100523.16;5055929;28;20036;-75
2023/07/02 04:01:05;;;;;;;17.05;5.97;;;;;;;15.40;91.38;100523.00;5051953;28;20028;-75
2023/07/02 04:03:31;;;;;;;12.98;6.22;;;;;;;15.38;91.98;100527.47;5052278;28;20036;-75
2023/07/02 04:05:56;;;;;;;17.98;6.85;;;;;;;15.44;91.37;100528.63;5057572;28;20025;-75
2023/07/02 04:08:22;;;;;;;19.10;7.30;;;;;;;15.25;92.48;100524.41;5051376;28;20036;-75
2023/07/02 04:10:47;;;;;;;17.00;6.82;;;;;;;15.42;91.79;100525.41;5047951;28;22466;-75
2023/07/02 04:13:13;;;;;;;19.63;5.72;;;;;;;15.31;92.13;100533.22;5039444;28;20794;-75
2023/07/02 04:15:38;;;;;;;23.50;6.35;;;;;;;15.44;91.82;100539.91;5010749;28;20140;-75
2023/07/02 04:18:03;;;;;;;19.42;7.10;;;;;;;15.28;92.52;100545.31;5040497;28;20072;-75
2023/07/02 04:20:29;;;;;;;19.55;7.85;;;;;;;15.18;93.39;100545.00;5048726;28;20054;-75
2023/07/02 04:22:54;;;;;;;17.05;6.53;;;;;;;15.19;93.64;100540.97;5044954;28;20114;-75
2023/07/02 04:25:21;;;;;;;18.73;6.75;;;;;;;15.07;94.73;100538.66;5046421;28;20033;-75
2023/07/02 04:27:46;;;;;;;27.38;8.45;;;;;;;15.24;93.56;100543.34;5039191;28;20041;-75
2023/07/02 04:30:12;;;;;;;18.60;6.97;;;;;;;15.21;93.84;100549.81;5042954;28;20044;-75
2023/07/02 04:32:41;;;;;;;16.58;7.45;;;;;;;14.97;95.56;100546.00;5017523;28;20036;-75
2023/07/02 04:35:11;;;;;;;17.30;6.25;;;;;;;15.31;93.43;100542.47;5038729;28;20485;-75
2023/07/02 04:37:36;;;;;;;21.95;6.50;;;;;;;15.40;93.11;100550.41;5031080;28;20036;-75
2023/07/02 04:40:09;;;;;;;20.63;8.05;;;;;;;15.10;95.24;100546.28;5040886;28;20032;-75
2023/07/02 04:42:34;;;;;;;;;;;;;;;15.19;94.68;100557.88;5038482;28;20032;-75
2023/07/02 04:45:03;;;;;;;16.88;6.30;;;;;;;15.26;93.98;100545.72;5041597;28;19913;-75
2023/07/02 04:47:29;;;;;;;18.60;6.28;;;;;;;15.22;94.04;100550.59;5030668;28;20105;-75
2023/07/02 04:49:54;;;;;;;25.25;7.95;;;;;;;14.97;96.17;100559.31;5043659;28;20044;-75
2023/07/02 04:52:20;;;;;;;23.58;6.93;;;;;;;15.29;94.32;100555.38;5044982;28;20029;-75
2023/07/02 04:54:45;;;;;;;18.88;5.97;;;;;;;15.29;94.18;100561.03;5030142;28;20587;-75
2023/07/02 04:57:10;;;;;;;18.13;6.13;;;;;;;15.30;94.61;100560.59;5034715;28;20461;-75
2023/07/02 04:59:36;;;;;;;20.33;6.97;;;;;;;15.32;94.67;100560.97;5038633;28;20036;-75
2023/07/02 05:02:01;;;;;;;21.55;6.88;;;;;;;15.29;94.85;100558.22;5037896;28;20025;-75
2023/07/02 05:04:27;;;;;;;13.98;6.35;;;;;;;15.21;95.96;100565.91;5040528;28;20060;-75
2023/07/02 05:06:53;;;;;;;23.38;7.40;;;;;;;15.23;96.23;100563.50;5042378;28;20394;-75
2023/07/02 05:09:18;;;;;;;19.67;7.28;;;;;;;15.29;95.80;100561.81;5043158;28;20029;-75
2023/07/02 05:11:43;;;;;;;18.48;6.57;;;;;;;15.37;95.26;100568.19;5059715;28;20044;-74
2023/07/02 05:14:09;;;;;;;17.17;6.38;;;;;;;15.33;95.98;100564.59;5056808;28;20020;-75
2023/07/02 05:16:34;;;;;;;15.93;6.53;;;;;;;15.48;95.00;100568.88;5060267;28;20036;-75
2023/07/02 05:18:59;;;;;;;21.55;7.65;;;;;;;15.42;94.90;100562.88;5057903;28;20056;-75
2023/07/02 05:21:25;;;;;;;17.45;6.88;;;;;;;15.44;95.55;100568.09;5058953;28;20103;-75
2023/07/02 05:23:50;;;;;;;23.10;7.80;;;;;;;15.37;96.21;100573.84;5062414;28;20052;-75
2023/07/02 05:26:16;;;;;;;21.33;6.90;;;;;;;15.54;95.25;100567.19;5063654;28;20024;-75
2023/07/02 05:28:41;;;;;;;20.48;6.63;;;;;;;15.55;95.82;100573.63;5058003;28;20512;-75
2023/07/02 05:31:06;;;;;;;19.15;7.00;;;;;;;15.61;95.08;100572.75;5057826;28;20499;-75
2023/07/02 05:33:33;;;;;;;22.15;7.47;;;;;;;15.27;98.08;100566.28;5059477;28;20024;-75
2023/07/02 05:35:58;;;;;;;23.30;8.15;;;;;;;15.29;98.43;100566.66;5061652;28;20027;-75
2023/07/02 05:38:24;;;;;;;14.85;5.65;;;;;;;15.48;97.05;100568.88;5055204;28;20497;-75
2023/07/02 05:40:50;;;;;;;21.63;7.65;;;;;;;15.70;96.42;100571.44;5058671;28;20024;-75
2023/07/02 05:43:15;;;;;;;15.38;6.45;;;;;;;15.83;95.89;100572.53;5074529;28;20052;-75
2023/07/02 05:45:40;;;;;;;22.50;6.80;;;;;;;15.72;97.18;100577.50;5059720;28;20028;-75
2023/07/02 05:48:06;;;;;;;21.55;6.70;;;;;;;15.56;98.32;100587.31;5057232;28;20160;-75
2023/07/02 05:50:31;;;;;;;19.60;6.45;;;;;;;15.72;97.10;100577.50;5054841;28;20119;-75
2023/07/02 05:52:57;;;;;;;23.23;6.78;;;;;;;15.81;97.04;100580.59;5053137;28;20040;-75
2023/07/02 05:55:23;;;;;;;19.17;7.30;;;;;;;15.76;98.12;100587.53;5059360;28;20025;-75
2023/07/02 05:57:48;;;;;;;14.98;6.80;;;;;;;15.95;97.42;100594.56;5059052;28;20029;-75
2023/07/02 06:00:14;;;;;;;26.23;8.35;;;;;;;15.83;98.40;100595.91;5056823;28;20094;-75
2023/07/02 06:02:40;;;;;;;19.95;7.03;;;;;;;15.88;97.66;100591.03;5041524;28;20032;-75
2023/07/02 06:05:05;;;;;;;19.95;7.38;;;;;;;15.92;97.50;100592.59;5057599;28;20035;-76
2023/07/02 06:07:31;;;;;;;25.65;6.72;;;;;;;16.03;97.22;100598.91;5057288;28;20029;-75
2023/07/02 06:09:56;;;;;;;23.40;6.90;;;;;;;16.15;97.18;100593.91;5057526;28;20041;-75
2023/07/02 06:12:22;;;;;;;24.05;6.18;;;;;;;16.28;96.58;100600.59;5053412;28;20123;-76
2023/07/02 06:14:48;;;;;;;22.63;6.32;;;;;;;16.25;96.08;100604.25;5051897;28;20052;-75
2023/07/02 06:17:13;;;;;;;19.50;6.35;;;;;;;16.21;96.66;100593.03;5053969;28;20036;-76
2023/07/02 06:19:39;;;;;;;23.55;7.18;;;;;;;16.24;97.15;100594.19;5055488;28;20032;-76
2023/07/02 06:22:04;;;;;;;21.92;7.18;;;;;;;16.24;97.72;100599.84;5054071;28;20076;-76
2023/07/02 06:24:30;;;;;;;28.88;8.18;;;;;;;16.17;99.34;100600.75;5056289;28;20052;-75
2023/07/02 06:26:56;;;;;;;13.70;6.18;;;;;;;16.19;99.12;100606.78;5060153;28;20059;-75
2023/07/02 06:29:23;;;;;;;23.40;7.75;;;;;;;16.23;98.37;100610.34;5062850;28;20060;-75
2023/07/02 06:31:48;;;;;;;17.85;5.45;;;;;;;16.17;100.00;100614.88;5056003;28;20040;-76
2023/07/02 06:34:14;;;;;;;17.65;5.68;;;;;;;16.41;97.56;100620.59;5057777;28;20029;-76
2023/07/02 06:36:40;;;;;;;17.77;7.18;;;;;;;16.34;96.45;100618.69;5058051;28;20115;-76
2023/07/02 06:39:05;;;;;;;26.48;6.85;;;;;;;16.42;95.64;100623.00;5056358;28;20032;-75
2023/07/02 06:41:30;;;;;;;22.42;7.07;;;;;;;16.46;95.18;100629.41;5058846;28;20033;-76
2023/07/02 06:43:56;;;;;;;19.17;6.32;;;;;;;16.44;94.02;100611.25;5059371;28;20133;-76
2023/07/02 06:46:21;;;;;;;19.35;5.78;;;;;;;16.48;94.30;100628.97;5062045;28;20074;-76
2023/07/02 06:48:46;;;;;;;21.35;7.28;;;;;;;16.49;94.02;100629.78;5052304;28;20126;-75
2023/07/02 06:51:14;;;;;;;21.05;6.70;;;;;;;16.54;93.66;100632.13;5050027;28;20045;-76
2023/07/02 06:53:40;;;;;;;16.27;5.95;;;;;;;16.53;93.25;100645.47;5057866;28;20050;-75
2023/07/02 06:56:08;;;;;;;16.38;5.55;;;;;;;16.42;92.65;100645.59;5059170;28;20044;-75
2023/07/02 06:58:33;;;;;;;17.98;6.07;;;;;;;16.44;92.38;100634.69;5049812;28;20036;-74
2023/07/02 07:00:58;;;;;;;16.70;5.55;;;;;;;16.51;92.06;100649.91;5056715;28;20043;-75
2023/07/02 07:03:24;;;;;;;24.80;6.85;;;;;;;16.53;91.52;100647.47;5048113;28;20060;-75
2023/07/02 07:05:49;;;;;;;14.73;5.50;;;;;;;16.63;92.12;100652.16;5057510;28;20032;-76
2023/07/02 07:08:15;;;;;;;16.48;7.18;;;;;;;16.70;91.69;100657.72;5057448;28;20029;-76
2023/07/02 07:10:40;;;;;;;16.02;5.72;;;;;;;16.77;91.15;100654.78;5072030;28;20064;-76
2023/07/02 07:13:06;;;;;;;15.23;5.75;;;;;;;16.67;92.23;100664.22;5055494;28;20033;-75
2023/07/02 07:15:34;;;;;;;17.38;7.07;;;;;;;16.65;90.11;100673.16;5054326;28;20024;-75
2023/07/02 07:17:59;;;;;;;21.65;5.72;;;;;;;16.67;89.91;100670.69;5056695;28;20472;-75
2023/07/02 07:20:25;;;;;;;14.18;6.10;;;;;;;16.63;89.79;100667.13;5052177;28;20036;-75
2023/07/02 07:22:50;;;;;;;17.77;5.53;;;;;;;16.57;91.01;100676.47;5053892;28;20056;-75
2023/07/02 07:25:15;;;;;;;14.05;6.43;;;;;;;16.78;90.18;100672.53;5052802;28;20024;-75
2023/07/02 07:27:41;;;;;;;12.48;5.45;;;;;;;16.76;89.92;100677.81;5046744;28;20139;-75
2023/07/02 07:30:06;;;;;;;13.60;5.18;;;;;;;16.73;89.29;100690.78;5054571;28;20067;-74
2023/07/02 07:32:32;;;;;;;18.40;6.05;;;;;;;16.59;90.30;100682.50;5054793;28;20028;-75
2023/07/02 07:34:58;;;;;;;12.90;5.05;;;;;;;16.74;90.00;100683.91;5055298;28;20123;-75
2023/07/02 07:37:25;;;;;;;14.95;5.10;;;;;;;16.64;90.81;100694.13;5052775;28;20032;-75
2023/07/02 07:39:50;;;;;;;11.80;5.25;;;;;;;16.86;89.32;100699.50;5051338;28;20048;-75
2023/07/02 07:42:16;;;;;;;11.98;4.85;;;;;;;16.89;88.61;100695.03;5052994;28;20025;-75
2023/07/02 07:44:44;;;;;;;10.45;4.93;;;;;;;16.90;88.60;100693.81;5052756;28;20714;-75
2023/07/02 07:47:09;;;;;;;14.52;4.30;;;;;;;16.86;86.99;100710.81;5060312;28;20484;-75
2023/07/02 07:49:35;;;;;;;11.02;4.20;;;;;;;16.73;84.74;100702.09;5051925;28;20036;-75
2023/07/02 07:52:00;;;;;;;9.95;4.00;;;;;;;16.79;85.37;100716.56;5045845;28;20024;-75
2023/07/02 07:54:26;;;;;;;12.05;4.85;;;;;;;16.93;83.81;100704.25;5049336;28;20025;-75
2023/07/02 07:56:51;;;;;;;9.70;4.03;;;;;;;16.89;84.87;100710.00;5059006;28;20033;-76
2023/07/02 07:59:16;;;;;;;18.63;6.22;;;;;;;17.07;84.76;100716.16;5056496;28;20507;-75
2023/07/02 08:01:42;;;;;;;12.18;4.40;;;;;;;17.12;83.44;100716.91;5042174;28;20094;-75
2023/07/02 08:04:07;;;;;;;11.60;4.10;;;;;;;17.19;83.25;100711.16;5051631;28;20032;-75
2023/07/02 08:06:33;;;;;;;13.77;4.53;;;;;;;17.28;82.89;100711.41;5037676;28;20051;-75
2023/07/02 08:08:58;;;;;;;14.48;4.32;;;;;;;17.16;82.16;100710.00;5052261;28;20067;-74
2023/07/02 08:11:24;;;;;;;7.38;3.33;;;;;;;17.50;80.93;100709.03;5032100;28;20389;-74
2023/07/02 08:13:50;;;;;;;10.15;4.70;;;;;;;17.32;81.52;100709.31;5028413;28;20042;-75
2023/07/02 08:16:16;;;;;;;8.15;4.28;;;;;;;17.92;90.00;100718.03;5035313;28;20032;-75
2023/07/02 08:18:42;;;;;;;11.00;3.78;;;;;;;18.15;79.18;100714.38;5033766;28;20736;-76
2023/07/02 08:21:08;;;;;;;10.05;3.92;;;;;;;18.43;80.45;100720.69;5036343;28;20041;-76
2023/07/02 08:23:35;;;;;;;18.27;5.10;;;;;;;18.49;79.86;100718.97;5030851;28;20043;-76
2023/07/02 08:26:00;;;;;;;11.50;4.20;;;;;;;18.61;80.10;100711.81;5031168;28;20540;-76
2023/07/02 08:28:26;;;;;;;13.23;4.13;;;;;;;18.84;76.38;100714.56;5014740;28;20361;-76
2023/07/02 08:30:51;;;;;;;10.68;5.18;;;;;;;18.66;79.59;100709.25;5032796;28;20512;-76
2023/07/02 08:33:16;;;;;;;9.77;4.45;;;;;;;18.51;79.90;100716.47;5031040;28;20529;-76
2023/07/02 08:35:42;;;;;;;11.18;4.22;;;;;;;18.43;79.60;100724.31;5032243;28;20036;-76
2023/07/02 08:38:08;;;;;;;14.27;5.60;;;;;;;18.70;79.67;100720.53;5015909;28;22928;-76
2023/07/02 08:40:33;;;;;;;12.10;4.05;;;;;;;18.79;76.98;100717.94;5020948;28;20123;-76
2023/07/02 08:42:59;;;;;;;11.38;4.22;;;;;;;18.61;72.93;100717.47;5035617;28;20045;-77
2023/07/02 08:45:25;;;;;;;10.60;4.25;;;;;;;18.89;74.53;100727.44;5044180;28;20088;-76
2023/07/02 08:47:53;;;;;;;13.50;5.47;;;;;;;19.15;71.87;100725.63;5034684;28;20405;-76
2023/07/02 08:50:19;;;;;;;8.68;4.35;;;;;;;18.61;70.79;100734.47;5040127;28;20450;-76
2023/07/02 08:52:45;;;;;;;15.10;4.63;;;;;;;18.87;74.47;100733.53;5023240;28;20033;-76
2023/07/02 08:55:10;;;;;;;11.48;4.18;;;;;;;18.84;72.25;100734.41;5040359;28;20440;-77
2023/07/02 08:57:36;;;;;;;10.70;3.60;;;;;;;18.72;74.01;100735.06;5039401;28;20033;-77
2023/07/02 09:00:09;;;;;;;10.68;4.32;;;;;;;19.07;70.15;100746.88;5043198;28;20044;-76
2023/07/02 09:02:34;;;;;;;7.18;3.30;;;;;;;18.47;70.88;100747.72;5038708;28;20025;-76
2023/07/02 09:05:01;;;;;;;10.43;4.20;;;;;;;18.34;74.69;100746.78;5037816;28;20032;-76
2023/07/02 09:07:26;;;;;;;6.03;3.05;;;;;;;18.08;77.07;100746.44;5042044;28;20051;-76
2023/07/02 09:09:52;;;;;;;12.60;3.95;;;;;;;18.22;71.37;100758.75;5018404;28;20041;-76
2023/07/02 09:12:31;;;;;;;10.27;3.67;;;;;;;18.61;73.19;100757.16;5033476;28;20078;-75
2023/07/02 09:15:06;;;;;;;8.55;3.47;;;;;;;18.45;71.57;100766.41;5042521;28;20036;-76
2023/07/02 09:17:34;;;;;;;9.73;4.18;;;;;;;18.18;71.82;100766.53;5043717;28;20060;-76
2023/07/02 09:20:01;;;;;;;11.52;4.60;;;;;;;18.28;72.37;100771.19;5045621;28;20511;-76
2023/07/02 09:22:27;;;;;;;9.45;3.40;;;;;;;18.13;73.85;100755.69;5042253;28;20095;-75
2023/07/02 09:24:57;;;;;;;10.93;3.58;;;;;;;18.03;74.64;100768.81;5037723;28;20109;-76
2023/07/02 09:27:40;;;;;;;11.15;4.43;;;;;;;18.06;76.81;100774.41;5041990;28;20029;-76
2023/07/02 09:30:18;;;;;;;8.95;4.35;;;;;;;18.52;73.68;100769.09;5041008;28;20029;-76
2023/07/02 09:32:44;;;;;;;12.07;4.70;;;;;;;18.75;71.86;100771.03;5044643;28;20026;-76
2023/07/02 09:35:10;;;;;;;16.38;4.97;;;;;;;19.05;72.10;100763.53;5033309;28;20493;-76
2023/07/02 09:37:36;;;;;;;11.75;4.57;;;;;;;19.21;71.19;100755.06;5039684;28;20035;-76
2023/07/02 09:40:07;;;;;;;8.10;4.72;;;;;;;18.78;69.33;100761.69;5043760;28;20035;-76
2023/07/02 09:42:34;;;;;;;13.95;4.38;;;;;;;19.34;66.74;100754.38;5042761;28;20064;-77
2023/07/02 09:45:01;;;;;;;12.32;4.18;;;;;;;19.10;69.56;100782.91;5040333;28;20474;-76
2023/07/02 09:47:29;;;;;;;10.10;4.25;;;;;;;18.64;68.91;100767.66;5040695;28;20032;-76
2023/07/02 09:49:59;;;;;;;13.52;4.63;;;;;;;18.48;73.47;100766.31;5041141;28;20032;-77
2023/07/02 09:52:26;;;;;;;11.38;4.30;;;;;;;18.27;73.42;100764.69;5039136;28;20124;-76
2023/07/02 09:54:51;;;;;;;11.05;4.60;;;;;;;18.34;74.21;100772.28;5037324;28;20216;-76
2023/07/02 09:57:17;;;;;;;9.13;3.47;;;;;;;18.48;77.43;100771.97;5032330;28;20033;-76
2023/07/02 09:59:42;;;;;;;10.63;3.78;;;;;;;18.25;71.88;100777.72;5018431;28;20033;-76
2023/07/02 10:02:12;;;;;;;9.00;4.53;;;;;;;18.37;74.78;100779.13;5035008;28;20508;-77
2023/07/02 10:04:45;;;;;;;11.27;3.85;;;;;;;18.86;72.00;100774.47;5037472;28;20029;-76
2023/07/02 10:07:11;;;;;;;8.27;4.13;;;;;;;19.19;71.18;100787.97;5018473;28;20070;-77
2023/07/02 10:09:38;;;;;;;7.45;3.28;;;;;;;19.40;71.82;100786.69;5038558;28;20064;-77
2023/07/02 10:12:27;;;;;;;11.80;3.08;;;;;;;19.27;70.45;100792.25;5057780;28;20107;-77
2023/07/02 10:14:59;;;;;;;10.32;4.03;;;;;;;19.07;73.36;100798.72;5056637;28;20036;-78
2023/07/02 10:17:32;;;;;;;10.27;3.40;;;;;;;19.16;74.15;100792.47;5060996;28;20539;-77
2023/07/02 10:20:06;;;;;;;8.15;3.83;;;;;;;19.14;75.32;100791.31;5060020;28;20024;-77
2023/07/02 10:22:43;;;;;;;16.98;3.67;;;;;;;18.95;74.39;100798.59;5052877;28;20032;-77
2023/07/02 10:25:08;;;;;;;8.93;3.47;;;;;;;18.89;75.16;100790.63;5058571;28;20025;-78
2023/07/02 10:27:41;;;;;;;9.13;2.97;;;;;;;19.08;76.28;100799.56;5057649;28;20366;-78
2023/07/02 10:30:09;;;;;;;6.53;3.13;;;;;;;18.93;71.49;100801.91;5064086;28;20024;-77
2023/07/02 10:32:37;;;;;;;9.73;3.10;;;;;;;18.95;72.27;100815.63;5058084;28;20036;-78
2023/07/02 10:35:25;;;;;;;6.28;3.38;;;;;;;19.21;72.71;100797.63;5060539;28;20376;-77
2023/07/02 10:37:50;;;;;;;9.82;3.28;;;;;;;19.09;72.68;100795.47;5057440;28;20153;-78
2023/07/02 10:40:16;;;;;;;9.52;3.75;;;;;;;19.00;73.80;100796.06;5056589;28;20497;-77
2023/07/02 10:42:49;;;;;;;6.18;2.78;;;;;;;19.18;71.94;100807.00;5059072;28;20032;-77
2023/07/02 10:45:15;;;;;;;8.70;3.58;;;;;;;19.55;72.26;100802.13;5058236;28;20393;-78
2023/07/02 10:47:41;;;;;;;8.88;3.83;;;;;;;19.72;71.88;100805.78;5058242;28;20031;-77
2023/07/02 10:50:20;;;;;;;13.07;4.07;;;;;;;19.39;72.24;100804.94;5056517;28;20029;-77
2023/07/02 10:52:47;;;;;;;13.05;3.70;;;;;;;19.49;65.71;100804.69;5063048;28;20047;-77
2023/07/02 10:55:25;;;;;;;6.63;3.50;;;;;;;19.08;67.14;100808.84;5061137;28;20039;-77
2023/07/02 10:58:03;;;;;;;9.38;3.10;;;;;;;19.70;69.56;100809.06;5055402;28;20028;-78
2023/07/02 11:00:29;;;;;;;8.75;3.08;;;;;;;19.85;62.54;100806.69;5054355;28;20044;-77
2023/07/02 11:02:55;;;;;;;7.68;3.78;;;;;;;19.75;69.00;100804.09;5050574;28;20115;-78
2023/07/02 11:05:20;;;;;;;5.95;2.97;;;;;;;19.72;64.79;100802.97;5054282;28;20162;-78
2023/07/02 11:07:46;;;;;;;7.40;2.55;;;;;;;19.36;63.81;100808.66;5054034;28;20032;-78
2023/07/02 11:10:20;;;;;;;11.25;3.72;;;;;;;19.37;64.60;100819.56;5054030;28;20040;-79
2023/07/02 11:12:45;;;;;;;8.07;3.97;;;;;;;19.41;65.60;100825.94;5059633;28;20106;-78
2023/07/02 11:15:13;;;;;;;6.43;2.97;;;;;;;19.50;65.14;100819.66;5052425;28;20485;-76
2023/07/02 11:17:42;;;;;;;14.23;4.03;;;;;;;19.87;65.45;100826.13;5057273;28;20422;-75